sensor_id;sensor_type;location;lat;lon;timestamp;pressure;altitude;pressure_sealevel;temperature;humidity
75221;BME280;63802;53.232;6.570;2023-04-15T00:00:02;101176.34;;;5.23;87.13
75221;BME280;63802;53.232;6.570;2023-04-15T00:02:27;101175.53;;;5.22;87.24
75221;BME280;63802;53.232;6.570;2023-04-15T00:04:53;101179.03;;;5.23;87.44
75221;BME280;63802;53.232;6.570;2023-04-15T00:07:19;101173.31;;;5.24;87.31
75221;BME280;63802;53.232;6.570;2023-04-15T00:09:44;101178.41;;;5.17;87.82
75221;BME280;63802;53.232;6.570;2023-04-15T00:12:10;101179.34;;;5.21;87.55
75221;BME280;63802;53.232;6.570;2023-04-15T00:14:36;101168.06;;;5.11;87.57
75221;BME280;63802;53.232;6.570;2023-04-15T00:17:02;101182.84;;;5.13;87.90
75221;BME280;63802;53.232;6.570;2023-04-15T00:19:29;101179.19;;;5.09;87.87
75221;BME280;63802;53.232;6.570;2023-04-15T00:21:58;101174.56;;;5.01;87.79
75221;BME280;63802;53.232;6.570;2023-04-15T00:24:24;101184.59;;;5.01;87.68
75221;BME280;63802;53.232;6.570;2023-04-15T00:26:50;101175.81;;;4.87;87.70
75221;BME280;63802;53.232;6.570;2023-04-15T00:29:16;101182.19;;;4.91;88.04
75221;BME280;63802;53.232;6.570;2023-04-15T00:31:41;101185.22;;;4.89;88.46
75221;BME280;63802;53.232;6.570;2023-04-15T00:34:07;101183.28;;;4.90;88.52
75221;BME280;63802;53.232;6.570;2023-04-15T00:36:33;101177.88;;;4.90;88.39
75221;BME280;63802;53.232;6.570;2023-04-15T00:39:00;101176.09;;;4.85;88.46
75221;BME280;63802;53.232;6.570;2023-04-15T00:41:26;101181.69;;;4.89;88.83
75221;BME280;63802;53.232;6.570;2023-04-15T00:43:52;101191.56;;;4.85;88.51
75221;BME280;63802;53.232;6.570;2023-04-15T00:46:18;101190.75;;;4.84;89.03
75221;BME280;63802;53.232;6.570;2023-04-15T00:48:45;101191.84;;;4.83;88.96
75221;BME280;63802;53.232;6.570;2023-04-15T00:51:12;101194.56;;;4.83;89.38
75221;BME280;63802;53.232;6.570;2023-04-15T00:53:38;101203.47;;;4.92;89.23
75221;BME280;63802;53.232;6.570;2023-04-15T00:56:04;101201.28;;;4.94;89.23
75221;BME280;63802;53.232;6.570;2023-04-15T00:58:30;101198.41;;;4.91;89.16
75221;BME280;63802;53.232;6.570;2023-04-15T01:00:55;101194.41;;;4.80;89.38
75221;BME280;63802;53.232;6.570;2023-04-15T01:03:22;101198.53;;;4.86;89.23
75221;BME280;63802;53.232;6.570;2023-04-15T01:05:49;101194.41;;;4.80;89.31
75221;BME280;63802;53.232;6.570;2023-04-15T01:08:14;101201.84;;;4.74;89.46
75221;BME280;63802;53.232;6.570;2023-04-15T01:10:40;101194.84;;;4.73;89.16
75221;BME280;63802;53.232;6.570;2023-04-15T01:13:06;101188.63;;;4.64;89.82
75221;BME280;63802;53.232;6.570;2023-04-15T01:15:31;101204.69;;;4.60;89.68
75221;BME280;63802;53.232;6.570;2023-04-15T01:17:58;101202.75;;;4.61;89.59
75221;BME280;63802;53.232;6.570;2023-04-15T01:20:23;101203.41;;;4.58;90.00
75221;BME280;63802;53.232;6.570;2023-04-15T01:22:49;101214.97;;;4.58;89.90
75221;BME280;63802;53.232;6.570;2023-04-15T01:25:24;101196.66;;;4.47;89.76
75221;BME280;63802;53.232;6.570;2023-04-15T01:27:52;101199.69;;;4.45;89.96
75221;BME280;63802;53.232;6.570;2023-04-15T01:30:17;101210.97;;;4.39;89.98
75221;BME280;63802;53.232;6.570;2023-04-15T01:32:42;101205.38;;;4.35;90.25
75221;BME280;63802;53.232;6.570;2023-04-15T01:35:08;101210.41;;;4.28;90.01
75221;BME280;63802;53.232;6.570;2023-04-15T01:37:34;101196.88;;;4.20;90.16
75221;BME280;63802;53.232;6.570;2023-04-15T01:39:59;101206.22;;;4.14;90.24
75221;BME280;63802;53.232;6.570;2023-04-15T01:42:26;101203.50;;;4.14;90.34
75221;BME280;63802;53.232;6.570;2023-04-15T01:44:51;101189.91;;;3.96;90.38
75221;BME280;63802;53.232;6.570;2023-04-15T01:47:17;101205.13;;;4.15;90.40
75221;BME280;63802;53.232;6.570;2023-04-15T01:49:43;101200.94;;;4.08;90.79
75221;BME280;63802;53.232;6.570;2023-04-15T01:52:08;101188.81;;;3.97;90.92
75221;BME280;63802;53.232;6.570;2023-04-15T01:54:34;101202.53;;;4.10;91.00
75221;BME280;63802;53.232;6.570;2023-04-15T01:57:00;101203.16;;;4.06;91.00
75221;BME280;63802;53.232;6.570;2023-04-15T01:59:27;101196.59;;;3.99;90.92
75221;BME280;63802;53.232;6.570;2023-04-15T02:01:53;101203.53;;;3.91;90.99
75221;BME280;63802;53.232;6.570;2023-04-15T02:04:19;101213.25;;;3.92;91.09
75221;BME280;63802;53.232;6.570;2023-04-15T02:06:44;101203.97;;;3.85;91.29
75221;BME280;63802;53.232;6.570;2023-04-15T02:09:10;101211.91;;;3.81;91.30
75221;BME280;63802;53.232;6.570;2023-04-15T02:11:36;101206.50;;;3.81;91.22
75221;BME280;63802;53.232;6.570;2023-04-15T02:14:04;101208.31;;;3.72;91.34
75221;BME280;63802;53.232;6.570;2023-04-15T02:16:31;101213.72;;;3.72;91.45
75221;BME280;63802;53.232;6.570;2023-04-15T02:18:58;101206.75;;;3.71;91.69
75221;BME280;63802;53.232;6.570;2023-04-15T02:21:25;101214.34;;;3.69;91.97
75221;BME280;63802;53.232;6.570;2023-04-15T02:23:51;101218.97;;;3.69;91.70
75221;BME280;63802;53.232;6.570;2023-04-15T02:26:18;101230.25;;;3.71;92.02
75221;BME280;63802;53.232;6.570;2023-04-15T02:28:43;101222.56;;;3.64;91.98
75221;BME280;63802;53.232;6.570;2023-04-15T02:31:09;101230.34;;;3.66;92.05
75221;BME280;63802;53.232;6.570;2023-04-15T02:33:34;101226.59;;;3.53;91.93
75221;BME280;63802;53.232;6.570;2023-04-15T02:36:04;101220.03;;;3.46;92.06
75221;BME280;63802;53.232;6.570;2023-04-15T02:38:29;101234.19;;;3.51;91.92
75221;BME280;63802;53.232;6.570;2023-04-15T02:40:56;101234.81;;;3.48;92.19
75221;BME280;63802;53.232;6.570;2023-04-15T02:43:22;101241.81;;;3.49;92.07
75221;BME280;63802;53.232;6.570;2023-04-15T02:45:47;101241.91;;;3.44;92.21
75221;BME280;63802;53.232;6.570;2023-04-15T02:48:13;101247.19;;;3.49;92.36
75221;BME280;63802;53.232;6.570;2023-04-15T02:50:38;101253.56;;;3.53;92.28
75221;BME280;63802;53.232;6.570;2023-04-15T02:53:05;101253.69;;;3.48;92.53
75221;BME280;63802;53.232;6.570;2023-04-15T02:55:30;101258.53;;;3.37;92.54
75221;BME280;63802;53.232;6.570;2023-04-15T02:57:56;101265.44;;;3.30;92.29
75221;BME280;63802;53.232;6.570;2023-04-15T03:00:25;101262.25;;;3.28;92.49
75221;BME280;63802;53.232;6.570;2023-04-15T03:02:50;101263.94;;;3.24;92.44
75221;BME280;63802;53.232;6.570;2023-04-15T03:05:21;101262.66;;;3.21;92.62
75221;BME280;63802;53.232;6.570;2023-04-15T03:07:49;101258.47;;;3.15;92.77
75221;BME280;63802;53.232;6.570;2023-04-15T03:10:15;101259.81;;;3.26;92.53
75221;BME280;63802;53.232;6.570;2023-04-15T03:12:41;101266.41;;;3.34;92.66
75221;BME280;63802;53.232;6.570;2023-04-15T03:15:07;101269.75;;;3.31;92.83
75221;BME280;63802;53.232;6.570;2023-04-15T03:17:32;101264.22;;;3.36;92.94
75221;BME280;63802;53.232;6.570;2023-04-15T03:19:58;101264.22;;;3.36;92.98
75221;BME280;63802;53.232;6.570;2023-04-15T03:22:23;101270.78;;;3.44;93.17
75221;BME280;63802;53.232;6.570;2023-04-15T03:24:50;101276.38;;;3.47;93.19
75221;BME280;63802;53.232;6.570;2023-04-15T03:27:16;101275.59;;;3.47;93.06
75221;BME280;63802;53.232;6.570;2023-04-15T03:29:41;101266.19;;;3.44;93.01
75221;BME280;63802;53.232;6.570;2023-04-15T03:32:06;101276.38;;;3.47;93.19
75221;BME280;63802;53.232;6.570;2023-04-15T03:34:32;101270.00;;;3.43;93.20
75221;BME280;63802;53.232;6.570;2023-04-15T03:36:57;101283.59;;;3.38;93.39
75221;BME280;63802;53.232;6.570;2023-04-15T03:39:22;101270.34;;;3.28;93.17
75221;BME280;63802;53.232;6.570;2023-04-15T03:41:48;101281.41;;;3.40;93.37
75221;BME280;63802;53.232;6.570;2023-04-15T03:44:13;101286.78;;;3.40;93.29
75221;BME280;63802;53.232;6.570;2023-04-15T03:46:38;101275.63;;;3.33;93.13
75221;BME280;63802;53.232;6.570;2023-04-15T03:49:06;101278.22;;;3.24;93.46
75221;BME280;63802;53.232;6.570;2023-04-15T03:51:31;101275.44;;;3.16;93.47
75221;BME280;63802;53.232;6.570;2023-04-15T03:53:57;101294.72;;;3.23;93.42
75221;BME280;63802;53.232;6.570;2023-04-15T03:56:23;101287.31;;;3.15;93.57
75221;BME280;63802;53.232;6.570;2023-04-15T03:58:48;101283.25;;;3.04;93.51
75221;BME280;63802;53.232;6.570;2023-04-15T04:01:14;101286.53;;;3.01;93.48
75221;BME280;63802;53.232;6.570;2023-04-15T04:03:40;101275.44;;;2.89;93.36
75221;BME280;63802;53.232;6.570;2023-04-15T04:06:06;101288.44;;;2.87;93.62
75221;BME280;63802;53.232;6.570;2023-04-15T04:08:32;101285.84;;;2.82;93.54
75221;BME280;63802;53.232;6.570;2023-04-15T04:10:57;101280.75;;;2.80;93.48
75221;BME280;63802;53.232;6.570;2023-04-15T04:13:23;101295.22;;;2.70;93.60
75221;BME280;63802;53.232;6.570;2023-04-15T04:15:48;101297.19;;;2.65;93.46
75221;BME280;63802;53.232;6.570;2023-04-15T04:18:14;101298.09;;;2.60;93.69
75221;BME280;63802;53.232;6.570;2023-04-15T04:20:39;101295.31;;;2.52;93.82
75221;BME280;63802;53.232;6.570;2023-04-15T04:23:05;101304.16;;;2.52;93.64
75221;BME280;63802;53.232;6.570;2023-04-15T04:25:33;101297.28;;;2.46;93.72
75221;BME280;63802;53.232;6.570;2023-04-15T04:27:59;101306.75;;;2.44;93.35
75221;BME280;63802;53.232;6.570;2023-04-15T04:30:24;101295.94;;;2.30;93.82
75221;BME280;63802;53.232;6.570;2023-04-15T04:32:50;101299.63;;;2.34;93.48
75221;BME280;63802;53.232;6.570;2023-04-15T04:35:16;101310.31;;;2.39;93.71
75221;BME280;63802;53.232;6.570;2023-04-15T04:37:41;101317.28;;;2.40;93.67
75221;BME280;63802;53.232;6.570;2023-04-15T04:40:07;101312.88;;;2.31;93.73
75221;BME280;63802;53.232;6.570;2023-04-15T04:42:33;101301.34;;;2.30;94.00
75221;BME280;63802;53.232;6.570;2023-04-15T04:44:59;101314.91;;;2.39;94.08
75221;BME280;63802;53.232;6.570;2023-04-15T04:47:24;101321.28;;;2.43;94.03
75221;BME280;63802;53.232;6.570;2023-04-15T04:49:49;101323.72;;;2.44;93.91
75221;BME280;63802;53.232;6.570;2023-04-15T04:52:15;101323.72;;;2.44;94.01
75221;BME280;63802;53.232;6.570;2023-04-15T04:54:40;101317.91;;;2.37;94.11
75221;BME280;63802;53.232;6.570;2023-04-15T04:57:06;101326.59;;;2.48;94.17
75221;BME280;63802;53.232;6.570;2023-04-15T04:59:32;101329.50;;;2.51;94.15
75221;BME280;63802;53.232;6.570;2023-04-15T05:01:57;101323.63;;;2.49;93.99
75221;BME280;63802;53.232;6.570;2023-04-15T05:04:23;101324.53;;;2.58;94.57
75221;BME280;63802;53.232;6.570;2023-04-15T05:06:48;101322.34;;;2.60;94.36
75221;BME280;63802;53.232;6.570;2023-04-15T05:09:14;101324.13;;;2.65;94.47
75221;BME280;63802;53.232;6.570;2023-04-15T05:11:40;101335.41;;;2.67;94.42
75221;BME280;63802;53.232;6.570;2023-04-15T05:14:05;101327.16;;;2.77;94.46
75221;BME280;63802;53.232;6.570;2023-04-15T05:16:31;101332.13;;;2.84;94.61
75221;BME280;63802;53.232;6.570;2023-04-15T05:18:57;101328.44;;;2.93;94.72
75221;BME280;63802;53.232;6.570;2023-04-15T05:21:23;101337.06;;;3.09;94.69
75221;BME280;63802;53.232;6.570;2023-04-15T05:23:48;101333.53;;;3.22;94.84
75221;BME280;63802;53.232;6.570;2023-04-15T05:26:17;101342.75;;;3.21;94.78
75221;BME280;63802;53.232;6.570;2023-04-15T05:28:42;101346.34;;;3.30;94.82
75221;BME280;63802;53.232;6.570;2023-04-15T05:31:08;101323.47;;;3.27;94.72
75221;BME280;63802;53.232;6.570;2023-04-15T05:33:34;101337.94;;;3.45;95.11
75221;BME280;63802;53.232;6.570;2023-04-15T05:35:59;101347.28;;;3.61;94.90
75221;BME280;63802;53.232;6.570;2023-04-15T05:38:25;101354.25;;;3.76;95.21
75221;BME280;63802;53.232;6.570;2023-04-15T05:40:51;101361.03;;;3.87;95.10
75221;BME280;63802;53.232;6.570;2023-04-15T05:43:17;101364.91;;;3.94;94.93
75221;BME280;63802;53.232;6.570;2023-04-15T05:45:42;101372.78;;;4.04;95.01
75221;BME280;63802;53.232;6.570;2023-04-15T05:48:08;101374.75;;;4.13;95.11
75221;BME280;63802;53.232;6.570;2023-04-15T05:50:33;101370.72;;;4.24;95.17
75221;BME280;63802;53.232;6.570;2023-04-15T05:52:59;101371.28;;;4.34;95.08
75221;BME280;63802;53.232;6.570;2023-04-15T05:55:24;101375.63;;;4.44;95.34
75221;BME280;63802;53.232;6.570;2023-04-15T05:57:50;101379.34;;;4.56;95.15
75221;BME280;63802;53.232;6.570;2023-04-15T06:00:16;101389.13;;;4.66;95.09
75221;BME280;63802;53.232;6.570;2023-04-15T06:02:42;101392.69;;;4.75;94.89
75221;BME280;63802;53.232;6.570;2023-04-15T06:05:07;101393.06;;;4.82;95.07
75221;BME280;63802;53.232;6.570;2023-04-15T06:07:35;101394.97;;;4.90;94.82
75221;BME280;63802;53.232;6.570;2023-04-15T06:10:02;101402.84;;;5.00;94.61
75221;BME280;63802;53.232;6.570;2023-04-15T06:12:27;101408.28;;;5.09;94.83
75221;BME280;63802;53.232;6.570;2023-04-15T06:14:52;101407.41;;;5.22;94.43
75221;BME280;63802;53.232;6.570;2023-04-15T06:17:18;101409.63;;;5.28;94.66
75221;BME280;63802;53.232;6.570;2023-04-15T06:19:43;101405.56;;;5.39;94.66
75221;BME280;63802;53.232;6.570;2023-04-15T06:22:09;101411.66;;;5.54;94.31
75221;BME280;63802;53.232;6.570;2023-04-15T06:24:34;101413.13;;;5.68;94.49
75221;BME280;63802;53.232;6.570;2023-04-15T06:27:01;101415.09;;;5.85;94.50
75221;BME280;63802;53.232;6.570;2023-04-15T06:29:26;101428.19;;;6.00;94.41
75221;BME280;63802;53.232;6.570;2023-04-15T06:31:52;101424.72;;;6.25;94.28
75221;BME280;63802;53.232;6.570;2023-04-15T06:34:17;101406.84;;;6.41;94.30
75221;BME280;63802;53.232;6.570;2023-04-15T06:36:43;101422.91;;;6.72;94.31
75221;BME280;63802;53.232;6.570;2023-04-15T06:39:08;101411.44;;;6.75;93.88
75221;BME280;63802;53.232;6.570;2023-04-15T06:41:35;101419.19;;;6.94;93.93
75221;BME280;63802;53.232;6.570;2023-04-15T06:44:00;101425.91;;;7.05;93.61
75221;BME280;63802;53.232;6.570;2023-04-15T06:46:26;101424.75;;;7.14;93.49
75221;BME280;63802;53.232;6.570;2023-04-15T06:48:51;101440.16;;;7.31;92.87
75221;BME280;63802;53.232;6.570;2023-04-15T06:51:17;101434.22;;;7.37;92.59
75221;BME280;63802;53.232;6.570;2023-04-15T06:53:42;101436.97;;;7.67;92.29
75221;BME280;63802;53.232;6.570;2023-04-15T06:56:08;101437.31;;;7.65;92.54
75221;BME280;63802;53.232;6.570;2023-04-15T06:58:33;101444.41;;;7.78;92.07
75221;BME280;63802;53.232;6.570;2023-04-15T07:00:59;101441.38;;;7.80;91.91
75221;BME280;63802;53.232;6.570;2023-04-15T07:03:25;101440.00;;;7.94;91.69
75221;BME280;63802;53.232;6.570;2023-04-15T07:05:51;101441.41;;;8.00;91.55
75221;BME280;63802;53.232;6.570;2023-04-15T07:08:17;101441.34;;;8.09;90.82
75221;BME280;63802;53.232;6.570;2023-04-15T07:10:44;101438.63;;;8.09;90.71
75221;BME280;63802;53.232;6.570;2023-04-15T07:13:10;101446.94;;;8.13;90.23
75221;BME280;63802;53.232;6.570;2023-04-15T07:15:38;101434.00;;;8.09;89.80
75221;BME280;63802;53.232;6.570;2023-04-15T07:18:03;101457.72;;;8.21;89.77
75221;BME280;63802;53.232;6.570;2023-04-15T07:20:29;101456.13;;;8.29;88.86
75221;BME280;63802;53.232;6.570;2023-04-15T07:22:54;101460.69;;;8.37;88.53
75221;BME280;63802;53.232;6.570;2023-04-15T07:25:20;101456.44;;;8.48;87.92
75221;BME280;63802;53.232;6.570;2023-04-15T07:27:46;101465.56;;;8.64;87.46
75221;BME280;63802;53.232;6.570;2023-04-15T07:30:12;101472.47;;;8.61;86.73
75221;BME280;63802;53.232;6.570;2023-04-15T07:32:38;101486.88;;;8.62;86.63
75221;BME280;63802;53.232;6.570;2023-04-15T07:35:04;101482.25;;;8.62;86.16
75221;BME280;63802;53.232;6.570;2023-04-15T07:37:29;101467.22;;;8.44;85.35
75221;BME280;63802;53.232;6.570;2023-04-15T07:39:55;101479.19;;;8.43;85.53
75221;BME280;63802;53.232;6.570;2023-04-15T07:42:21;101481.53;;;8.53;85.33
75221;BME280;63802;53.232;6.570;2023-04-15T07:44:46;101483.50;;;8.65;84.69
75221;BME280;63802;53.232;6.570;2023-04-15T07:47:12;101491.47;;;8.70;84.38
75221;BME280;63802;53.232;6.570;2023-04-15T07:49:37;101493.31;;;8.78;83.92
75221;BME280;63802;53.232;6.570;2023-04-15T07:52:03;101483.84;;;8.96;83.50
75221;BME280;63802;53.232;6.570;2023-04-15T07:54:28;101496.88;;;8.91;83.25
75221;BME280;63802;53.232;6.570;2023-04-15T07:56:54;101487.25;;;8.93;82.80
75221;BME280;63802;53.232;6.570;2023-04-15T07:59:20;101497.13;;;8.98;82.51
75221;BME280;63802;53.232;6.570;2023-04-15T08:01:46;101492.97;;;8.80;82.03
75221;BME280;63802;53.232;6.570;2023-04-15T08:04:12;101502.47;;;8.94;81.79
75221;BME280;63802;53.232;6.570;2023-04-15T08:06:38;101498.78;;;8.90;81.98
75221;BME280;63802;53.232;6.570;2023-04-15T08:09:05;101504.47;;;8.85;81.67
75221;BME280;63802;53.232;6.570;2023-04-15T08:11:31;101507.66;;;8.87;81.91
75221;BME280;63802;53.232;6.570;2023-04-15T08:13:56;101508.72;;;8.74;82.08
75221;BME280;63802;53.232;6.570;2023-04-15T08:16:24;101505.13;;;8.82;81.95
75221;BME280;63802;53.232;6.570;2023-04-15T08:18:51;101509.09;;;8.64;81.47
75221;BME280;63802;53.232;6.570;2023-04-15T08:21:18;101497.66;;;8.58;81.15
75221;BME280;63802;53.232;6.570;2023-04-15T08:23:45;101500.50;;;8.41;81.75
75221;BME280;63802;53.232;6.570;2023-04-15T08:26:11;101511.50;;;8.45;81.62
75221;BME280;63802;53.232;6.570;2023-04-15T08:28:38;101507.91;;;8.32;81.81
75221;BME280;63802;53.232;6.570;2023-04-15T08:31:04;101514.28;;;8.36;82.19
75221;BME280;63802;53.232;6.570;2023-04-15T08:33:30;101497.41;;;8.22;81.98
75221;BME280;63802;53.232;6.570;2023-04-15T08:35:55;101525.06;;;8.24;82.42
75221;BME280;63802;53.232;6.570;2023-04-15T08:38:22;101514.66;;;8.26;82.02
75221;BME280;63802;53.232;6.570;2023-04-15T08:40:48;101512.25;;;8.25;82.35
75221;BME280;63802;53.232;6.570;2023-04-15T08:43:38;101517.63;;;8.42;82.57
75221;BME280;63802;53.232;6.570;2023-04-15T08:46:08;101524.25;;;8.53;82.00
75221;BME280;63802;53.232;6.570;2023-04-15T08:48:37;101520.69;;;8.61;81.71
75221;BME280;63802;53.232;6.570;2023-04-15T08:51:03;101502.47;;;8.53;80.67
75221;BME280;63802;53.232;6.570;2023-04-15T08:53:29;101521.47;;;8.82;80.22
75221;BME280;63802;53.232;6.570;2023-04-15T08:55:56;101499.03;;;8.64;79.85
75221;BME280;63802;53.232;6.570;2023-04-15T08:58:22;101520.25;;;8.71;79.75
75221;BME280;63802;53.232;6.570;2023-04-15T09:00:49;101507.91;;;8.73;79.60
75221;BME280;63802;53.232;6.570;2023-04-15T09:03:15;101499.31;;;8.51;79.51
75221;BME280;63802;53.232;6.570;2023-04-15T09:05:41;101504.00;;;8.42;79.47
75221;BME280;63802;53.232;6.570;2023-04-15T09:08:07;101530.72;;;8.40;80.27
75221;BME280;63802;53.232;6.570;2023-04-15T09:10:33;101528.81;;;8.40;80.52
75221;BME280;63802;53.232;6.570;2023-04-15T09:13:00;101540.03;;;8.59;80.20
75221;BME280;63802;53.232;6.570;2023-04-15T09:15:26;101535.91;;;8.74;80.07
75221;BME280;63802;53.232;6.570;2023-04-15T09:17:54;101541.78;;;8.85;79.53
75221;BME280;63802;53.232;6.570;2023-04-15T09:20:20;101540.41;;;8.91;79.16
75221;BME280;63802;53.232;6.570;2023-04-15T09:22:47;101547.22;;;8.85;78.46
75221;BME280;63802;53.232;6.570;2023-04-15T09:27:52;101546.63;;;9.00;78.18
75221;BME280;63802;53.232;6.570;2023-04-15T09:30:17;101546.72;;;9.03;77.71
75221;BME280;63802;53.232;6.570;2023-04-15T09:32:51;101550.00;;;8.97;77.59
75221;BME280;63802;53.232;6.570;2023-04-15T09:35:17;101556.53;;;9.16;77.75
75221;BME280;63802;53.232;6.570;2023-04-15T09:37:43;101561.56;;;9.26;77.70
75221;BME280;63802;53.232;6.570;2023-04-15T09:40:09;101554.78;;;9.32;77.34
75221;BME280;63802;53.232;6.570;2023-04-15T09:42:55;101557.19;;;9.46;76.83
75221;BME280;63802;53.232;6.570;2023-04-15T09:45:21;101560.50;;;9.52;76.18
75221;BME280;63802;53.232;6.570;2023-04-15T09:47:47;101574.75;;;9.36;76.33
75221;BME280;63802;53.232;6.570;2023-04-15T09:50:28;101573.84;;;9.32;76.15
75221;BME280;63802;53.232;6.570;2023-04-15T09:52:54;101575.38;;;9.21;76.39
75221;BME280;63802;53.232;6.570;2023-04-15T09:55:20;101574.19;;;9.10;76.25
75221;BME280;63802;53.232;6.570;2023-04-15T09:57:46;101567.91;;;9.18;75.89
75221;BME280;63802;53.232;6.570;2023-04-15T10:00:12;101569.22;;;9.12;75.96
75221;BME280;63802;53.232;6.570;2023-04-15T10:02:41;101576.28;;;9.13;75.81
75221;BME280;63802;53.232;6.570;2023-04-15T10:05:13;101576.53;;;9.20;75.95
75221;BME280;63802;53.232;6.570;2023-04-15T10:07:39;101578.38;;;9.28;76.28
75221;BME280;63802;53.232;6.570;2023-04-15T10:10:07;101581.84;;;9.50;76.44
75221;BME280;63802;53.232;6.570;2023-04-15T10:12:34;101573.25;;;9.60;76.29
75221;BME280;63802;53.232;6.570;2023-04-15T10:15:05;101586.31;;;9.33;76.39
75221;BME280;63802;53.232;6.570;2023-04-15T10:17:32;101575.25;;;9.51;76.33
75221;BME280;63802;53.232;6.570;2023-04-15T10:20:03;101581.59;;;9.42;77.04
75221;BME280;63802;53.232;6.570;2023-04-15T10:22:30;101583.28;;;9.35;77.41
75221;BME280;63802;53.232;6.570;2023-04-15T10:24:57;101593.63;;;9.41;77.33
75221;BME280;63802;53.232;6.570;2023-04-15T10:27:25;101588.59;;;9.31;77.50
75221;BME280;63802;53.232;6.570;2023-04-15T10:29:51;101599.88;;;9.21;77.24
75221;BME280;63802;53.232;6.570;2023-04-15T10:32:18;101573.75;;;9.08;77.62
75221;BME280;63802;53.232;6.570;2023-04-15T10:34:46;101595.78;;;9.15;78.14
75221;BME280;63802;53.232;6.570;2023-04-15T10:37:12;101602.16;;;9.19;78.37
75221;BME280;63802;53.232;6.570;2023-04-15T10:39:38;101594.19;;;9.14;78.88
75221;BME280;63802;53.232;6.570;2023-04-15T10:42:12;101588.06;;;9.17;79.18
75221;BME280;63802;53.232;6.570;2023-04-15T10:44:41;101586.00;;;9.14;78.89
75221;BME280;63802;53.232;6.570;2023-04-15T10:47:26;101611.56;;;9.22;78.17
75221;BME280;63802;53.232;6.570;2023-04-15T10:50:00;101598.72;;;9.10;78.00
75221;BME280;63802;53.232;6.570;2023-04-15T10:52:27;101608.91;;;9.34;77.74
75221;BME280;63802;53.232;6.570;2023-04-15T10:55:13;101611.31;;;9.35;77.76
75221;BME280;63802;53.232;6.570;2023-04-15T10:57:44;101616.38;;;9.25;77.54
75221;BME280;63802;53.232;6.570;2023-04-15T11:00:15;101617.00;;;9.42;77.39
75221;BME280;63802;53.232;6.570;2023-04-15T11:02:53;101623.53;;;9.29;77.18
75221;BME280;63802;53.232;6.570;2023-04-15T11:05:22;101609.19;;;9.20;77.22
75221;BME280;63802;53.232;6.570;2023-04-15T11:12:41;101626.19;;;9.17;77.34
75221;BME280;63802;53.232;6.570;2023-04-15T11:20:36;101639.88;;;9.29;76.99
75221;BME280;63802;53.232;6.570;2023-04-15T11:23:03;101637.47;;;9.49;76.34
75221;BME280;63802;53.232;6.570;2023-04-15T11:25:31;101643.81;;;9.53;76.37
75221;BME280;63802;53.232;6.570;2023-04-15T11:27:58;101645.88;;;9.56;75.88
75221;BME280;63802;53.232;6.570;2023-04-15T11:30:26;101650.22;;;9.57;76.04
75221;BME280;63802;53.232;6.570;2023-04-15T11:32:54;101647.94;;;9.59;76.52
75221;BME280;63802;53.232;6.570;2023-04-15T11:35:20;101653.69;;;9.45;76.49
75221;BME280;63802;53.232;6.570;2023-04-15T11:37:47;101645.63;;;9.49;77.06
75221;BME280;63802;53.232;6.570;2023-04-15T11:40:13;101655.25;;;9.46;76.54
75221;BME280;63802;53.232;6.570;2023-04-15T11:42:39;101656.56;;;9.61;77.06
75221;BME280;63802;53.232;6.570;2023-04-15T11:45:11;101659.59;;;9.80;75.89
75221;BME280;63802;53.232;6.570;2023-04-15T11:47:38;101655.91;;;9.64;76.78
75221;BME280;63802;53.232;6.570;2023-04-15T11:50:21;101653.78;;;9.69;76.80
75221;BME280;63802;53.232;6.570;2023-04-15T11:52:59;101665.66;;;9.65;76.53
75221;BME280;63802;53.232;6.570;2023-04-15T11:55:30;101664.31;;;9.17;77.40
75221;BME280;63802;53.232;6.570;2023-04-15T11:58:10;101661.38;;;9.43;76.86
75221;BME280;63802;53.232;6.570;2023-04-15T12:00:38;101665.53;;;9.28;77.70
75221;BME280;63802;53.232;6.570;2023-04-15T12:03:16;101665.31;;;9.33;77.90
75221;BME280;63802;53.232;6.570;2023-04-15T12:06:08;101670.03;;;9.24;77.90
75221;BME280;63802;53.232;6.570;2023-04-15T12:09:02;101664.34;;;9.38;77.93
75221;BME280;63802;53.232;6.570;2023-04-15T12:11:55;101671.34;;;9.39;78.13
75221;BME280;63802;53.232;6.570;2023-04-15T12:14:26;101680.50;;;9.55;78.05
75221;BME280;63802;53.232;6.570;2023-04-15T12:16:57;101673.88;;;9.44;78.19
75221;BME280;63802;53.232;6.570;2023-04-15T12:19:38;101672.41;;;9.47;78.22
75221;BME280;63802;53.232;6.570;2023-04-15T12:22:06;101678.41;;;9.40;78.68
75221;BME280;63802;53.232;6.570;2023-04-15T12:24:34;101681.03;;;9.07;78.89
75221;BME280;63802;53.232;6.570;2023-04-15T12:27:10;101691.16;;;9.27;78.85
75221;BME280;63802;53.232;6.570;2023-04-15T12:29:38;101673.09;;;9.23;79.29
75221;BME280;63802;53.232;6.570;2023-04-15T12:32:05;101692.47;;;9.21;79.56
75221;BME280;63802;53.232;6.570;2023-04-15T12:34:37;101699.91;;;9.12;79.93
75221;BME280;63802;53.232;6.570;2023-04-15T12:37:05;101705.81;;;9.14;80.09
75221;BME280;63802;53.232;6.570;2023-04-15T12:39:35;101701.91;;;9.03;80.75
75221;BME280;63802;53.232;6.570;2023-04-15T12:42:02;101685.56;;;9.03;80.78
75221;BME280;63802;53.232;6.570;2023-04-15T12:44:28;101698.44;;;8.94;81.83
75221;BME280;63802;53.232;6.570;2023-04-15T12:46:54;101711.59;;;8.92;82.27
75221;BME280;63802;53.232;6.570;2023-04-15T12:49:20;101698.25;;;8.99;81.85
75221;BME280;63802;53.232;6.570;2023-04-15T12:51:51;101713.53;;;8.83;82.98
75221;BME280;63802;53.232;6.570;2023-04-15T12:54:17;101705.09;;;8.76;82.72
75221;BME280;63802;53.232;6.570;2023-04-15T12:56:44;101722.97;;;8.86;83.10
75221;BME280;63802;53.232;6.570;2023-04-15T12:59:10;101732.41;;;8.88;83.38
75221;BME280;63802;53.232;6.570;2023-04-15T13:01:37;101715.38;;;8.70;83.61
75221;BME280;63802;53.232;6.570;2023-04-15T13:04:03;101712.97;;;8.69;83.94
75221;BME280;63802;53.232;6.570;2023-04-15T13:06:28;101719.88;;;8.66;83.96
75221;BME280;63802;53.232;6.570;2023-04-15T13:08:54;101701.53;;;8.55;84.17
75221;BME280;63802;53.232;6.570;2023-04-15T13:11:21;101730.94;;;8.61;84.43